sensor_id;sensor_type;location;lat;lon;timestamp;P1;durP1;ratioP1;P2;durP2;ratioP2
54269;SDS011;40181;51.560;13.000;2022-11-18T00:01:57;8.50;;;5.60;;
54269;SDS011;40181;51.560;13.000;2022-11-18T00:04:26;6.93;;;5.22;;
54269;SDS011;40181;51.560;13.000;2022-11-18T00:06:55;6.25;;;5.22;;
54269;SDS011;40181;51.560;13.000;2022-11-18T00:09:24;7.85;;;5.70;;
54269;SDS011;40181;51.560;13.000;2022-11-18T00:11:56;9.70;;;6.85;;
54269;SDS011;40181;51.560;13.000;2022-11-18T00:14:38;5.82;;;4.50;;
54269;SDS011;40181;51.560;13.000;2022-11-18T00:17:07;7.25;;;5.28;;
54269;SDS011;40181;51.560;13.000;2022-11-18T00:19:37;9.05;;;6.65;;
54269;SDS011;40181;51.560;13.000;2022-11-18T00:22:10;5.95;;;5.28;;
54269;SDS011;40181;51.560;13.000;2022-11-18T00:24:40;7.15;;;6.03;;
54269;SDS011;40181;51.560;13.000;2022-11-18T00:27:11;8.93;;;6.32;;
54269;SDS011;40181;51.560;13.000;2022-11-18T00:29:41;7.05;;;5.53;;
54269;SDS011;40181;51.560;13.000;2022-11-18T00:32:10;11.05;;;7.53;;
54269;SDS011;40181;51.560;13.000;2022-11-18T00:34:39;11.77;;;6.38;;
54269;SDS011;40181;51.560;13.000;2022-11-18T00:37:09;7.17;;;5.77;;
54269;SDS011;40181;51.560;13.000;2022-11-18T00:39:38;5.95;;;5.32;;
54269;SDS011;40181;51.560;13.000;2022-11-18T00:42:08;7.03;;;5.28;;
54269;SDS011;40181;51.560;13.000;2022-11-18T00:44:53;6.18;;;5.30;;
54269;SDS011;40181;51.560;13.000;2022-11-18T00:47:22;9.13;;;5.80;;
54269;SDS011;40181;51.560;13.000;2022-11-18T00:49:51;8.38;;;5.53;;
54269;SDS011;40181;51.560;13.000;2022-11-18T00:52:21;7.15;;;5.07;;
54269;SDS011;40181;51.560;13.000;2022-11-18T00:54:50;9.68;;;6.30;;
54269;SDS011;40181;51.560;13.000;2022-11-18T00:57:22;7.50;;;5.93;;
54269;SDS011;40181;51.560;13.000;2022-11-18T00:59:52;8.75;;;5.55;;
54269;SDS011;40181;51.560;13.000;2022-11-18T01:02:21;6.82;;;5.88;;
54269;SDS011;40181;51.560;13.000;2022-11-18T01:04:50;6.55;;;5.75;;
54269;SDS011;40181;51.560;13.000;2022-11-18T01:07:20;6.95;;;5.50;;
54269;SDS011;40181;51.560;13.000;2022-11-18T01:09:49;7.22;;;6.10;;
54269;SDS011;40181;51.560;13.000;2022-11-18T01:12:18;8.25;;;5.43;;
54269;SDS011;40181;51.560;13.000;2022-11-18T01:15:03;7.00;;;4.88;;
54269;SDS011;40181;51.560;13.000;2022-11-18T01:17:34;6.70;;;5.30;;
54269;SDS011;40181;51.560;13.000;2022-11-18T01:20:03;7.95;;;5.63;;
54269;SDS011;40181;51.560;13.000;2022-11-18T01:22:34;6.63;;;5.13;;
54269;SDS011;40181;51.560;13.000;2022-11-18T01:25:04;8.82;;;6.07;;
54269;SDS011;40181;51.560;13.000;2022-11-18T01:27:36;7.60;;;6.22;;
54269;SDS011;40181;51.560;13.000;2022-11-18T01:30:06;6.88;;;5.38;;
54269;SDS011;40181;51.560;13.000;2022-11-18T01:32:37;9.25;;;6.22;;
54269;SDS011;40181;51.560;13.000;2022-11-18T01:35:06;8.00;;;5.55;;
54269;SDS011;40181;51.560;13.000;2022-11-18T01:37:36;7.57;;;5.97;;
54269;SDS011;40181;51.560;13.000;2022-11-18T01:40:08;8.68;;;6.60;;
54269;SDS011;40181;51.560;13.000;2022-11-18T01:42:41;7.70;;;5.97;;
54269;SDS011;40181;51.560;13.000;2022-11-18T01:45:23;7.50;;;6.05;;
54269;SDS011;40181;51.560;13.000;2022-11-18T01:48:00;9.07;;;6.70;;
54269;SDS011;40181;51.560;13.000;2022-11-18T01:50:33;7.85;;;6.97;;
54269;SDS011;40181;51.560;13.000;2022-11-18T01:53:06;7.35;;;6.65;;
54269;SDS011;40181;51.560;13.000;2022-11-18T01:55:41;8.55;;;6.60;;
54269;SDS011;40181;51.560;13.000;2022-11-18T01:58:17;6.28;;;5.63;;
54269;SDS011;40181;51.560;13.000;2022-11-18T02:00:52;8.93;;;6.53;;
54269;SDS011;40181;51.560;13.000;2022-11-18T02:03:23;9.90;;;6.63;;
54269;SDS011;40181;51.560;13.000;2022-11-18T02:05:53;7.75;;;6.18;;
54269;SDS011;40181;51.560;13.000;2022-11-18T02:08:23;6.68;;;5.88;;
54269;SDS011;40181;51.560;13.000;2022-11-18T02:10:54;9.15;;;5.72;;
54269;SDS011;40181;51.560;13.000;2022-11-18T02:13:26;6.25;;;5.25;;
54269;SDS011;40181;51.560;13.000;2022-11-18T02:15:58;8.68;;;6.60;;
54269;SDS011;40181;51.560;13.000;2022-11-18T02:18:36;7.30;;;5.43;;
54269;SDS011;40181;51.560;13.000;2022-11-18T02:21:18;5.33;;;4.50;;
54269;SDS011;40181;51.560;13.000;2022-11-18T02:27:04;6.95;;;6.03;;
54269;SDS011;40181;51.560;13.000;2022-11-18T02:30:11;14.68;;;5.43;;
54269;SDS011;40181;51.560;13.000;2022-11-18T02:32:45;8.45;;;5.22;;
54269;SDS011;40181;51.560;13.000;2022-11-18T02:35:21;8.10;;;6.75;;
54269;SDS011;40181;51.560;13.000;2022-11-18T02:37:57;6.63;;;5.82;;
54269;SDS011;40181;51.560;13.000;2022-11-18T02:40:31;7.85;;;5.35;;
54269;SDS011;40181;51.560;13.000;2022-11-18T02:43:07;9.93;;;5.95;;
54269;SDS011;40181;51.560;13.000;2022-11-18T02:45:45;9.23;;;6.75;;
54269;SDS011;40181;51.560;13.000;2022-11-18T02:48:18;10.20;;;6.60;;
54269;SDS011;40181;51.560;13.000;2022-11-18T02:50:52;10.13;;;8.07;;
54269;SDS011;40181;51.560;13.000;2022-11-18T02:53:22;8.50;;;6.90;;
54269;SDS011;40181;51.560;13.000;2022-11-18T02:55:56;9.13;;;7.05;;
54269;SDS011;40181;51.560;13.000;2022-11-18T02:58:27;8.40;;;5.80;;
54269;SDS011;40181;51.560;13.000;2022-11-18T03:01:00;9.60;;;6.47;;
54269;SDS011;40181;51.560;13.000;2022-11-18T03:03:30;11.95;;;7.43;;
54269;SDS011;40181;51.560;13.000;2022-11-18T03:06:03;7.05;;;6.13;;
54269;SDS011;40181;51.560;13.000;2022-11-18T03:08:41;11.45;;;7.13;;
54269;SDS011;40181;51.560;13.000;2022-11-18T03:11:17;9.73;;;6.88;;
54269;SDS011;40181;51.560;13.000;2022-11-18T03:13:54;8.57;;;6.25;;
54269;SDS011;40181;51.560;13.000;2022-11-18T03:16:39;8.35;;;6.40;;
54269;SDS011;40181;51.560;13.000;2022-11-18T03:19:17;10.20;;;6.38;;
54269;SDS011;40181;51.560;13.000;2022-11-18T03:21:59;7.72;;;6.40;;
54269;SDS011;40181;51.560;13.000;2022-11-18T03:24:39;8.27;;;6.47;;
54269;SDS011;40181;51.560;13.000;2022-11-18T03:27:13;9.90;;;7.03;;
54269;SDS011;40181;51.560;13.000;2022-11-18T03:29:48;11.60;;;7.03;;
54269;SDS011;40181;51.560;13.000;2022-11-18T03:32:28;6.63;;;5.93;;
54269;SDS011;40181;51.560;13.000;2022-11-18T03:35:03;8.38;;;6.97;;
54269;SDS011;40181;51.560;13.000;2022-11-18T03:37:37;11.48;;;8.43;;
54269;SDS011;40181;51.560;13.000;2022-11-18T03:40:11;9.15;;;6.85;;
54269;SDS011;40181;51.560;13.000;2022-11-18T03:42:47;10.68;;;6.07;;
54269;SDS011;40181;51.560;13.000;2022-11-18T03:45:21;10.15;;;6.55;;
54269;SDS011;40181;51.560;13.000;2022-11-18T03:47:59;10.77;;;7.63;;
54269;SDS011;40181;51.560;13.000;2022-11-18T03:50:34;10.70;;;8.27;;
54269;SDS011;40181;51.560;13.000;2022-11-18T03:53:08;14.77;;;9.57;;
54269;SDS011;40181;51.560;13.000;2022-11-18T03:58:10;11.65;;;7.97;;
54269;SDS011;40181;51.560;13.000;2022-11-18T04:00:46;7.65;;;6.22;;
54269;SDS011;40181;51.560;13.000;2022-11-18T04:03:22;11.80;;;7.40;;
54269;SDS011;40181;51.560;13.000;2022-11-18T04:05:52;7.07;;;6.25;;
54269;SDS011;40181;51.560;13.000;2022-11-18T04:08:29;8.18;;;6.45;;
54269;SDS011;40181;51.560;13.000;2022-11-18T04:11:07;10.73;;;7.65;;
54269;SDS011;40181;51.560;13.000;2022-11-18T04:14:02;9.95;;;7.00;;
54269;SDS011;40181;51.560;13.000;2022-11-18T04:16:37;9.35;;;7.82;;
54269;SDS011;40181;51.560;13.000;2022-11-18T04:19:10;15.85;;;6.95;;
54269;SDS011;40181;51.560;13.000;2022-11-18T04:21:39;9.45;;;7.10;;
54269;SDS011;40181;51.560;13.000;2022-11-18T04:24:09;7.88;;;6.38;;
54269;SDS011;40181;51.560;13.000;2022-11-18T04:26:38;8.75;;;6.60;;
54269;SDS011;40181;51.560;13.000;2022-11-18T04:29:07;10.88;;;7.30;;
54269;SDS011;40181;51.560;13.000;2022-11-18T04:31:36;9.68;;;6.60;;
54269;SDS011;40181;51.560;13.000;2022-11-18T04:34:06;7.22;;;5.82;;
54269;SDS011;40181;51.560;13.000;2022-11-18T04:36:38;8.50;;;7.03;;
54269;SDS011;40181;51.560;13.000;2022-11-18T04:39:07;10.40;;;6.60;;
54269;SDS011;40181;51.560;13.000;2022-11-18T04:41:37;8.57;;;6.22;;
54269;SDS011;40181;51.560;13.000;2022-11-18T04:44:19;7.65;;;6.82;;
54269;SDS011;40181;51.560;13.000;2022-11-18T04:46:48;8.73;;;6.22;;
54269;SDS011;40181;51.560;13.000;2022-11-18T04:49:20;9.05;;;6.60;;
54269;SDS011;40181;51.560;13.000;2022-11-18T04:51:50;9.95;;;7.15;;
54269;SDS011;40181;51.560;13.000;2022-11-18T04:54:20;8.23;;;6.40;;
54269;SDS011;40181;51.560;13.000;2022-11-18T04:56:51;8.13;;;6.97;;
54269;SDS011;40181;51.560;13.000;2022-11-18T04:59:22;12.55;;;7.90;;
54269;SDS011;40181;51.560;13.000;2022-11-18T05:01:53;10.35;;;7.43;;
54269;SDS011;40181;51.560;13.000;2022-11-18T05:04:28;9.27;;;7.30;;
54269;SDS011;40181;51.560;13.000;2022-11-18T05:06:59;9.48;;;6.47;;
54269;SDS011;40181;51.560;13.000;2022-11-18T05:09:31;11.30;;;6.53;;
54269;SDS011;40181;51.560;13.000;2022-11-18T05:12:01;9.90;;;7.18;;
54269;SDS011;40181;51.560;13.000;2022-11-18T05:14:43;8.85;;;5.72;;
54269;SDS011;40181;51.560;13.000;2022-11-18T05:17:12;9.75;;;7.43;;
54269;SDS011;40181;51.560;13.000;2022-11-18T05:19:44;12.18;;;8.18;;
54269;SDS011;40181;51.560;13.000;2022-11-18T05:22:14;14.70;;;8.43;;
54269;SDS011;40181;51.560;13.000;2022-11-18T05:24:43;11.75;;;7.55;;
54269;SDS011;40181;51.560;13.000;2022-11-18T05:27:13;9.15;;;7.18;;
54269;SDS011;40181;51.560;13.000;2022-11-18T05:29:43;15.57;;;6.37;;
54269;SDS011;40181;51.560;13.000;2022-11-18T05:32:12;9.15;;;7.32;;
54269;SDS011;40181;51.560;13.000;2022-11-18T05:34:41;9.68;;;7.00;;
54269;SDS011;40181;51.560;13.000;2022-11-18T05:37:14;14.38;;;7.57;;
54269;SDS011;40181;51.560;13.000;2022-11-18T05:39:43;13.05;;;9.05;;
54269;SDS011;40181;51.560;13.000;2022-11-18T05:42:13;16.77;;;9.55;;
54269;SDS011;40181;51.560;13.000;2022-11-18T05:44:54;13.95;;;11.13;;
54269;SDS011;40181;51.560;13.000;2022-11-18T05:47:24;12.77;;;10.23;;
54269;SDS011;40181;51.560;13.000;2022-11-18T05:50:16;16.38;;;10.07;;
54269;SDS011;40181;51.560;13.000;2022-11-18T05:52:45;8.77;;;7.72;;
54269;SDS011;40181;51.560;13.000;2022-11-18T05:55:15;13.43;;;9.23;;
54269;SDS011;40181;51.560;13.000;2022-11-18T05:57:45;17.42;;;11.88;;
54269;SDS011;40181;51.560;13.000;2022-11-18T06:00:15;16.20;;;10.35;;
54269;SDS011;40181;51.560;13.000;2022-11-18T06:02:45;12.60;;;10.23;;
54269;SDS011;40181;51.560;13.000;2022-11-18T06:05:20;13.93;;;10.15;;
54269;SDS011;40181;51.560;13.000;2022-11-18T06:07:52;17.13;;;11.13;;
54269;SDS011;40181;51.560;13.000;2022-11-18T06:10:25;15.23;;;9.77;;
54269;SDS011;40181;51.560;13.000;2022-11-18T06:13:00;12.20;;;10.38;;
54269;SDS011;40181;51.560;13.000;2022-11-18T06:15:34;15.85;;;11.73;;
54269;SDS011;40181;51.560;13.000;2022-11-18T06:18:07;14.00;;;10.70;;
54269;SDS011;40181;51.560;13.000;2022-11-18T06:20:42;13.73;;;11.02;;
54269;SDS011;40181;51.560;13.000;2022-11-18T06:23:12;16.65;;;11.43;;
54269;SDS011;40181;51.560;13.000;2022-11-18T06:25:42;13.95;;;11.18;;
54269;SDS011;40181;51.560;13.000;2022-11-18T06:28:12;16.23;;;12.13;;
54269;SDS011;40181;51.560;13.000;2022-11-18T06:30:43;10.32;;;8.48;;
54269;SDS011;40181;51.560;13.000;2022-11-18T06:33:12;13.93;;;11.38;;
54269;SDS011;40181;51.560;13.000;2022-11-18T06:35:44;13.63;;;11.07;;
54269;SDS011;40181;51.560;13.000;2022-11-18T06:38:13;16.05;;;12.48;;
54269;SDS011;40181;51.560;13.000;2022-11-18T06:40:43;13.25;;;10.05;;
54269;SDS011;40181;51.560;13.000;2022-11-18T06:43:12;12.95;;;10.40;;
54269;SDS011;40181;51.560;13.000;2022-11-18T06:45:56;15.02;;;10.82;;
54269;SDS011;40181;51.560;13.000;2022-11-18T06:48:38;13.55;;;9.40;;
54269;SDS011;40181;51.560;13.000;2022-11-18T06:51:10;14.85;;;11.75;;
54269;SDS011;40181;51.560;13.000;2022-11-18T06:53:40;12.73;;;9.80;;
54269;SDS011;40181;51.560;13.000;2022-11-18T06:56:10;12.07;;;10.70;;
54269;SDS011;40181;51.560;13.000;2022-11-18T06:58:42;18.15;;;11.50;;
54269;SDS011;40181;51.560;13.000;2022-11-18T07:01:12;17.15;;;11.30;;
54269;SDS011;40181;51.560;13.000;2022-11-18T07:03:44;14.77;;;9.90;;
54269;SDS011;40181;51.560;13.000;2022-11-18T07:06:17;17.13;;;10.27;;
54269;SDS011;40181;51.560;13.000;2022-11-18T07:08:48;15.75;;;11.50;;
54269;SDS011;40181;51.560;13.000;2022-11-18T07:11:20;13.27;;;11.15;;
54269;SDS011;40181;51.560;13.000;2022-11-18T07:13:52;14.30;;;11.63;;
54269;SDS011;40181;51.560;13.000;2022-11-18T07:16:23;16.05;;;11.93;;
54269;SDS011;40181;51.560;13.000;2022-11-18T07:18:54;17.67;;;14.05;;
54269;SDS011;40181;51.560;13.000;2022-11-18T07:21:26;13.38;;;11.23;;
54269;SDS011;40181;51.560;13.000;2022-11-18T07:23:57;16.05;;;13.18;;
54269;SDS011;40181;51.560;13.000;2022-11-18T07:26:26;12.82;;;10.52;;
54269;SDS011;40181;51.560;13.000;2022-11-18T07:28:56;17.63;;;14.50;;
54269;SDS011;40181;51.560;13.000;2022-11-18T07:31:25;16.08;;;12.75;;
54269;SDS011;40181;51.560;13.000;2022-11-18T07:36:28;21.77;;;16.52;;
54269;SDS011;40181;51.560;13.000;2022-11-18T07:38:58;33.03;;;25.33;;
54269;SDS011;40181;51.560;13.000;2022-11-18T07:41:28;25.83;;;21.63;;
54269;SDS011;40181;51.560;13.000;2022-11-18T07:43:59;21.45;;;17.73;;
54269;SDS011;40181;51.560;13.000;2022-11-18T07:46:31;35.00;;;22.23;;
54269;SDS011;40181;51.560;13.000;2022-11-18T07:49:03;21.05;;;15.57;;
54269;SDS011;40181;51.560;13.000;2022-11-18T07:51:37;20.35;;;15.25;;
54269;SDS011;40181;51.560;13.000;2022-11-18T07:54:07;17.38;;;14.55;;
54269;SDS011;40181;51.560;13.000;2022-11-18T07:56:41;16.90;;;12.88;;
54269;SDS011;40181;51.560;13.000;2022-11-18T07:59:10;19.60;;;14.57;;
54269;SDS011;40181;51.560;13.000;2022-11-18T08:01:39;18.45;;;13.52;;
54269;SDS011;40181;51.560;13.000;2022-11-18T08:04:09;18.40;;;14.57;;
54269;SDS011;40181;51.560;13.000;2022-11-18T08:06:43;17.63;;;13.50;;
54269;SDS011;40181;51.560;13.000;2022-11-18T08:09:12;16.95;;;12.75;;
54269;SDS011;40181;51.560;13.000;2022-11-18T08:11:41;18.50;;;14.57;;
54269;SDS011;40181;51.560;13.000;2022-11-18T08:14:11;19.20;;;12.88;;
54269;SDS011;40181;51.560;13.000;2022-11-18T08:16:40;19.85;;;13.57;;
54269;SDS011;40181;51.560;13.000;2022-11-18T08:19:09;21.60;;;13.70;;
54269;SDS011;40181;51.560;13.000;2022-11-18T08:21:38;13.80;;;11.55;;
54269;SDS011;40181;51.560;13.000;2022-11-18T08:24:10;19.48;;;12.80;;
54269;SDS011;40181;51.560;13.000;2022-11-18T08:26:40;17.33;;;13.63;;
54269;SDS011;40181;51.560;13.000;2022-11-18T08:29:09;18.95;;;14.63;;
54269;SDS011;40181;51.560;13.000;2022-11-18T08:31:39;17.65;;;13.95;;
54269;SDS011;40181;51.560;13.000;2022-11-18T08:34:08;18.67;;;14.30;;
54269;SDS011;40181;51.560;13.000;2022-11-18T08:36:37;18.63;;;14.73;;
54269;SDS011;40181;51.560;13.000;2022-11-18T08:39:07;17.90;;;12.88;;
54269;SDS011;40181;51.560;13.000;2022-11-18T08:41:42;16.45;;;13.02;;
54269;SDS011;40181;51.560;13.000;2022-11-18T08:44:12;17.83;;;12.82;;
54269;SDS011;40181;51.560;13.000;2022-11-18T08:46:43;18.83;;;13.63;;
54269;SDS011;40181;51.560;13.000;2022-11-18T08:49:13;13.20;;;12.00;;
54269;SDS011;40181;51.560;13.000;2022-11-18T08:51:42;19.00;;;14.02;;
54269;SDS011;40181;51.560;13.000;2022-11-18T08:54:14;15.15;;;11.55;;
54269;SDS011;40181;51.560;13.000;2022-11-18T08:56:44;16.38;;;12.50;;
54269;SDS011;40181;51.560;13.000;2022-11-18T08:59:14;16.17;;;12.50;;
54269;SDS011;40181;51.560;13.000;2022-11-18T09:01:44;15.73;;;12.27;;
54269;SDS011;40181;51.560;13.000;2022-11-18T09:04:13;12.68;;;11.07;;
54269;SDS011;40181;51.560;13.000;2022-11-18T09:06:42;13.25;;;11.13;;
54269;SDS011;40181;51.560;13.000;2022-11-18T09:09:14;14.98;;;11.73;;
54269;SDS011;40181;51.560;13.000;2022-11-18T09:11:43;13.48;;;10.52;;
54269;SDS011;40181;51.560;13.000;2022-11-18T09:14:12;10.23;;;9.23;;
54269;SDS011;40181;51.560;13.000;2022-11-18T09:16:42;12.40;;;9.90;;
54269;SDS011;40181;51.560;13.000;2022-11-18T09:19:13;11.88;;;10.35;;
54269;SDS011;40181;51.560;13.000;2022-11-18T09:21:42;11.63;;;8.55;;
54269;SDS011;40181;51.560;13.000;2022-11-18T09:24:14;12.80;;;8.40;;
54269;SDS011;40181;51.560;13.000;2022-11-18T09:26:43;9.70;;;7.95;;
54269;SDS011;40181;51.560;13.000;2022-11-18T09:29:13;11.35;;;9.50;;
54269;SDS011;40181;51.560;13.000;2022-11-18T09:31:44;13.75;;;8.75;;
54269;SDS011;40181;51.560;13.000;2022-11-18T09:34:13;9.68;;;7.97;;
54269;SDS011;40181;51.560;13.000;2022-11-18T09:36:43;11.55;;;8.25;;
54269;SDS011;40181;51.560;13.000;2022-11-18T09:39:15;8.93;;;7.57;;
54269;SDS011;40181;51.560;13.000;2022-11-18T09:41:45;9.95;;;8.75;;
54269;SDS011;40181;51.560;13.000;2022-11-18T09:44:24;10.30;;;8.73;;
54269;SDS011;40181;51.560;13.000;2022-11-18T09:47:14;9.32;;;8.25;;
54269;SDS011;40181;51.560;13.000;2022-11-18T09:49:53;10.20;;;8.30;;
54269;SDS011;40181;51.560;13.000;2022-11-18T09:52:25;9.77;;;8.77;;
54269;SDS011;40181;51.560;13.000;2022-11-18T09:55:01;9.20;;;8.30;;
54269;SDS011;40181;51.560;13.000;2022-11-18T09:57:36;9.65;;;7.85;;
54269;SDS011;40181;51.560;13.000;2022-11-18T10:00:12;10.85;;;8.68;;
54269;SDS011;40181;51.560;13.000;2022-11-18T10:02:55;11.48;;;9.98;;
54269;SDS011;40181;51.560;13.000;2022-11-18T10:05:29;9.70;;;8.70;;
54269;SDS011;40181;51.560;13.000;2022-11-18T10:08:13;12.43;;;10.52;;
54269;SDS011;40181;51.560;13.000;2022-11-18T10:10:57;13.50;;;10.90;;
54269;SDS011;40181;51.560;13.000;2022-11-18T10:13:39;14.98;;;11.70;;
54269;SDS011;40181;51.560;13.000;2022-11-18T10:16:21;15.75;;;12.75;;
54269;SDS011;40181;51.560;13.000;2022-11-18T10:19:00;11.75;;;9.40;;
54269;SDS011;40181;51.560;13.000;2022-11-18T10:21:45;10.45;;;9.43;;
54269;SDS011;40181;51.560;13.000;2022-11-18T10:24:26;11.55;;;9.63;;
54269;SDS011;40181;51.560;13.000;2022-11-18T10:27:06;10.43;;;8.57;;
54269;SDS011;40181;51.560;13.000;2022-11-18T10:29:39;10.75;;;8.70;;
54269;SDS011;40181;51.560;13.000;2022-11-18T10:32:10;9.00;;;8.15;;
54269;SDS011;40181;51.560;13.000;2022-11-18T10:34:46;8.02;;;6.72;;
54269;SDS011;40181;51.560;13.000;2022-11-18T10:37:22;8.55;;;7.70;;
54269;SDS011;40181;51.560;13.000;2022-11-18T10:39:54;11.70;;;9.50;;
54269;SDS011;40181;51.560;13.000;2022-11-18T10:42:28;15.20;;;11.63;;
54269;SDS011;40181;51.560;13.000;2022-11-18T10:45:13;12.77;;;9.85;;
54269;SDS011;40181;51.560;13.000;2022-11-18T10:47:46;9.27;;;8.32;;
54269;SDS011;40181;51.560;13.000;2022-11-18T10:50:28;10.93;;;8.85;;
54269;SDS011;40181;51.560;13.000;2022-11-18T10:53:01;6.80;;;5.95;;
54269;SDS011;40181;51.560;13.000;2022-11-18T10:55:33;9.73;;;8.05;;
54269;SDS011;40181;51.560;13.000;2022-11-18T10:58:09;10.43;;;8.05;;
54269;SDS011;40181;51.560;13.000;2022-11-18T11:00:44;9.40;;;8.05;;
54269;SDS011;40181;51.560;13.000;2022-11-18T11:03:22;12.32;;;8.98;;
54269;SDS011;40181;51.560;13.000;2022-11-18T11:08:56;13.20;;;10.23;;
54269;SDS011;40181;51.560;13.000;2022-11-18T11:11:28;11.43;;;10.15;;
54269;SDS011;40181;51.560;13.000;2022-11-18T11:14:04;11.43;;;9.43;;
54269;SDS011;40181;51.560;13.000;2022-11-18T11:17:03;12.05;;;9.93;;
54269;SDS011;40181;51.560;13.000;2022-11-18T11:19:39;12.38;;;10.13;;
54269;SDS011;40181;51.560;13.000;2022-11-18T11:22:16;15.05;;;11.60;;
54269;SDS011;40181;51.560;13.000;2022-11-18T11:24:46;12.55;;;10.77;;
54269;SDS011;40181;51.560;13.000;2022-11-18T11:27:20;16.98;;;12.70;;
54269;SDS011;40181;51.560;13.000;2022-11-18T11:30:20;16.73;;;13.65;;
54269;SDS011;40181;51.560;13.000;2022-11-18T11:36:07;14.73;;;11.57;;
54269;SDS011;40181;51.560;13.000;2022-11-18T11:38:59;14.52;;;13.05;;
54269;SDS011;40181;51.560;13.000;2022-11-18T11:41:46;19.33;;;14.27;;
54269;SDS011;40181;51.560;13.000;2022-11-18T11:44:28;15.82;;;13.85;;
54269;SDS011;40181;51.560;13.000;2022-11-18T11:47:16;17.85;;;14.45;;
54269;SDS011;40181;51.560;13.000;2022-11-18T11:50:11;24.45;;;15.75;;
54269;SDS011;40181;51.560;13.000;2022-11-18T11:52:48;15.23;;;13.23;;
54269;SDS011;40181;51.560;13.000;2022-11-18T11:55:34;24.38;;;21.50;;
54269;SDS011;40181;51.560;13.000;2022-11-18T11:58:18;19.33;;;17.15;;
54269;SDS011;40181;51.560;13.000;2022-11-18T12:01:09;21.55;;;15.57;;
54269;SDS011;40181;51.560;13.000;2022-11-18T12:04:01;15.73;;;14.02;;
54269;SDS011;40181;51.560;13.000;2022-11-18T12:06:45;15.88;;;13.77;;
54269;SDS011;40181;51.560;13.000;2022-11-18T12:09:19;15.55;;;13.82;;
54269;SDS011;40181;51.560;13.000;2022-11-18T12:11:59;15.85;;;14.18;;
54269;SDS011;40181;51.560;13.000;2022-11-18T12:14:55;20.48;;;16.02;;
54269;SDS011;40181;51.560;13.000;2022-11-18T12:17:32;17.42;;;13.27;;
54269;SDS011;40181;51.560;13.000;2022-11-18T12:23:19;13.90;;;12.40;;
54269;SDS011;40181;51.560;13.000;2022-11-18T12:26:03;19.52;;;15.43;;
54269;SDS011;40181;51.560;13.000;2022-11-18T12:28:35;14.40;;;13.02;;
54269;SDS011;40181;51.560;13.000;2022-11-18T12:34:16;18.52;;;13.30;;
54269;SDS011;40181;51.560;13.000;2022-11-18T12:40:33;17.58;;;14.10;;
54269;SDS011;40181;51.560;13.000;2022-11-18T12:43:10;19.95;;;17.75;;
54269;SDS011;40181;51.560;13.000;2022-11-18T12:52:45;19.98;;;17.10;;
54269;SDS011;40181;51.560;13.000;2022-11-18T12:55:20;16.30;;;14.40;;
54269;SDS011;40181;51.560;13.000;2022-11-18T12:58:02;20.35;;;17.35;;
54269;SDS011;40181;51.560;13.000;2022-11-18T13:00:44;24.17;;;16.60;;
54269;SDS011;40181;51.560;13.000;2022-11-18T13:03:25;22.52;;;17.40;;
54269;SDS011;40181;51.560;13.000;2022-11-18T13:08:52;15.93;;;13.80;;
54269;SDS011;40181;51.560;13.000;2022-11-18T13:11:24;16.88;;;14.43;;
54269;SDS011;40181;51.560;13.000;2022-11-18T13:14:13;20.90;;;15.63;;
54269;SDS011;40181;51.560;13.000;2022-11-18T13:16:58;23.33;;;18.00;;
54269;SDS011;40181;51.560;13.000;2022-11-18T13:19:42;21.65;;;16.05;;
54269;SDS011;40181;51.560;13.000;2022-11-18T13:22:23;19.77;;;17.20;;
54269;SDS011;40181;51.560;13.000;2022-11-18T13:25:05;17.83;;;15.60;;
54269;SDS011;40181;51.560;13.000;2022-11-18T13:27:52;19.55;;;15.95;;
54269;SDS011;40181;51.560;13.000;2022-11-18T13:30:30;18.80;;;13.73;;
54269;SDS011;40181;51.560;13.000;2022-11-18T13:33:08;16.92;;;14.02;;
54269;SDS011;40181;51.560;13.000;2022-11-18T13:35:41;14.30;;;12.80;;
54269;SDS011;40181;51.560;13.000;2022-11-18T13:38:17;19.10;;;15.43;;
54269;SDS011;40181;51.560;13.000;2022-11-18T13:40:49;18.20;;;13.55;;
54269;SDS011;40181;51.560;13.000;2022-11-18T13:43:32;19.95;;;14.65;;
54269;SDS011;40181;51.560;13.000;2022-11-18T13:46:02;15.45;;;13.88;;
54269;SDS011;40181;51.560;13.000;2022-11-18T13:48:36;16.90;;;13.57;;
54269;SDS011;40181;51.560;13.000;2022-11-18T13:51:17;16.10;;;13.80;;
54269;SDS011;40181;51.560;13.000;2022-11-18T13:53:47;16.02;;;12.77;;
54269;SDS011;40181;51.560;13.000;2022-11-18T13:56:18;18.27;;;13.43;;
54269;SDS011;40181;51.560;13.000;2022-11-18T13:58:51;18.73;;;13.95;;
54269;SDS011;40181;51.560;13.000;2022-11-18T14:01:25;18.23;;;11.80;;
54269;SDS011;40181;51.560;13.000;2022-11-18T14:03:57;15.07;;;11.93;;
54269;SDS011;40181;51.560;13.000;2022-11-18T14:06:34;17.77;;;12.30;;
54269;SDS011;40181;51.560;13.000;2022-11-18T14:09:06;14.73;;;13.10;;
54269;SDS011;40181;51.560;13.000;2022-11-18T14:11:56;16.25;;;12.93;;
54269;SDS011;40181;51.560;13.000;2022-11-18T14:14:30;13.68;;;11.90;;
54269;SDS011;40181;51.560;13.000;2022-11-18T14:17:02;13.93;;;12.27;;
54269;SDS011;40181;51.560;13.000;2022-11-18T14:19:42;14.50;;;11.95;;
54269;SDS011;40181;51.560;13.000;2022-11-18T14:22:16;13.25;;;11.00;;
54269;SDS011;40181;51.560;13.000;2022-11-18T14:24:54;16.50;;;13.25;;
54269;SDS011;40181;51.560;13.000;2022-11-18T14:27:38;14.48;;;12.25;;
54269;SDS011;40181;51.560;13.000;2022-11-18T14:35:48;16.42;;;14.00;;
54269;SDS011;40181;51.560;13.000;2022-11-18T14:38:27;12.75;;;11.45;;
54269;SDS011;40181;51.560;13.000;2022-11-18T14:41:11;15.65;;;13.52;;
54269;SDS011;40181;51.560;13.000;2022-11-18T14:44:01;16.35;;;14.65;;
54269;SDS011;40181;51.560;13.000;2022-11-18T14:46:31;13.13;;;11.13;;
54269;SDS011;40181;51.560;13.000;2022-11-18T14:49:01;15.25;;;12.82;;
54269;SDS011;40181;51.560;13.000;2022-11-18T14:51:31;15.73;;;14.00;;
54269;SDS011;40181;51.560;13.000;2022-11-18T14:54:03;14.20;;;11.88;;
54269;SDS011;40181;51.560;13.000;2022-11-18T14:56:33;14.60;;;12.20;;
54269;SDS011;40181;51.560;13.000;2022-11-18T15:01:32;13.60;;;12.15;;
54269;SDS011;40181;51.560;13.000;2022-11-18T15:04:01;15.02;;;12.40;;
54269;SDS011;40181;51.560;13.000;2022-11-18T15:06:30;14.73;;;12.65;;
54269;SDS011;40181;51.560;13.000;2022-11-18T15:09:00;14.75;;;12.38;;
54269;SDS011;40181;51.560;13.000;2022-11-18T15:11:32;14.52;;;11.65;;
54269;SDS011;40181;51.560;13.000;2022-11-18T15:14:01;21.77;;;12.18;;
54269;SDS011;40181;51.560;13.000;2022-11-18T15:16:31;17.55;;;12.77;;
54269;SDS011;40181;51.560;13.000;2022-11-18T15:19:03;16.85;;;13.65;;
54269;SDS011;40181;51.560;13.000;2022-11-18T15:21:34;14.48;;;12.98;;
54269;SDS011;40181;51.560;13.000;2022-11-18T15:24:05;12.98;;;11.63;;
54269;SDS011;40181;51.560;13.000;2022-11-18T15:26:36;25.80;;;18.52;;
54269;SDS011;40181;51.560;13.000;2022-11-18T15:29:12;36.13;;;27.75;;
54269;SDS011;40181;51.560;13.000;2022-11-18T15:31:45;35.35;;;25.35;;
54269;SDS011;40181;51.560;13.000;2022-11-18T15:34:15;24.73;;;17.70;;
54269;SDS011;40181;51.560;13.000;2022-11-18T15:36:46;20.15;;;15.70;;
54269;SDS011;40181;51.560;13.000;2022-11-18T15:39:18;16.60;;;13.65;;
54269;SDS011;40181;51.560;13.000;2022-11-18T15:41:48;15.43;;;13.90;;